createdAt,value
2023-05-16T00:00:35.225Z,121.90
2023-05-16T00:03:03.300Z,128.25
2023-05-16T00:05:30.396Z,119.97
2023-05-16T00:07:57.049Z,120.32
2023-05-16T00:10:23.766Z,123.82
2023-05-16T00:12:53.594Z,125.40
2023-05-16T00:15:20.405Z,122.00
2023-05-16T00:17:47.161Z,119.82
2023-05-16T00:20:14.405Z,118.55
2023-05-16T00:22:41.961Z,117.60
2023-05-16T00:25:09.482Z,115.80
2023-05-16T00:27:36.535Z,118.13
2023-05-16T00:30:03.987Z,119.63
2023-05-16T00:32:31.234Z,119.18
2023-05-16T00:34:57.884Z,120.43
2023-05-16T00:37:24.564Z,120.15
2023-05-16T00:39:51.283Z,118.82
2023-05-16T00:42:20.878Z,122.70
2023-05-16T00:44:50.651Z,117.05
2023-05-16T00:47:17.286Z,118.97
2023-05-16T00:49:44.117Z,119.00
2023-05-16T00:52:11.597Z,116.80
2023-05-16T00:54:38.441Z,117.25
2023-05-16T00:57:06.712Z,121.72
2023-05-16T00:59:34.057Z,119.60
2023-05-16T01:02:01.326Z,118.65
2023-05-16T01:04:28.526Z,124.55
2023-05-16T01:06:58.616Z,118.32
2023-05-16T01:09:25.329Z,115.60
2023-05-16T01:11:54.685Z,119.57
2023-05-16T01:14:46.031Z,117.60
2023-05-16T01:17:36.802Z,123.90
2023-05-16T01:20:15.671Z,118.72
2023-05-16T01:23:27.735Z,116.35
2023-05-16T01:26:01.111Z,115.97
2023-05-16T01:28:28.550Z,114.63
2023-05-16T01:30:55.457Z,119.57
2023-05-16T01:33:22.099Z,115.40
2023-05-16T01:36:11.683Z,119.65
2023-05-16T01:39:19.239Z,115.43
2023-05-16T01:42:03.622Z,114.18
2023-05-16T01:44:51.823Z,116.43
2023-05-16T01:47:21.661Z,118.28
2023-05-16T01:50:05.193Z,115.05
2023-05-16T01:52:39.018Z,118.85
2023-05-16T01:55:13.746Z,119.07
2023-05-16T01:57:42.202Z,121.97
2023-05-16T02:00:09.335Z,113.57
2023-05-16T02:02:36.008Z,118.50
2023-05-16T02:05:02.719Z,117.22
2023-05-16T02:07:29.456Z,115.60
2023-05-16T02:09:56.087Z,116.65
2023-05-16T02:12:22.845Z,121.63
2023-05-16T02:14:49.507Z,121.18
2023-05-16T02:17:16.164Z,117.03
2023-05-16T02:19:42.902Z,116.78
2023-05-16T02:22:09.511Z,116.38
2023-05-16T02:24:36.335Z,115.00
2023-05-16T02:27:02.958Z,115.40
2023-05-16T02:29:29.571Z,116.03
2023-05-16T02:31:56.174Z,115.10
2023-05-16T02:34:22.930Z,111.30
2023-05-16T02:36:49.547Z,114.55
2023-05-16T02:39:16.261Z,112.22
2023-05-16T02:41:42.868Z,115.10
2023-05-16T02:44:09.478Z,116.78
2023-05-16T02:46:36.734Z,113.20
2023-05-16T02:49:03.661Z,114.75
2023-05-16T02:51:30.309Z,117.00
2023-05-16T02:53:57.235Z,117.90
2023-05-16T02:56:23.992Z,112.85
2023-05-16T02:58:50.713Z,118.78
2023-05-16T03:01:17.824Z,114.40
2023-05-16T03:03:44.886Z,112.60
2023-05-16T03:06:12.314Z,111.07
2023-05-16T03:08:38.919Z,117.57
2023-05-16T03:11:05.574Z,120.32
2023-05-16T03:13:33.035Z,112.90
2023-05-16T03:16:00.213Z,118.35
2023-05-16T03:18:26.874Z,113.95
2023-05-16T03:20:53.496Z,118.43
2023-05-16T03:23:20.870Z,114.25
2023-05-16T03:25:48.034Z,118.53
2023-05-16T03:28:16.383Z,115.68
2023-05-16T03:30:43.051Z,115.90
2023-05-16T03:33:09.731Z,116.45
2023-05-16T03:35:36.986Z,114.10
2023-05-16T03:38:04.109Z,114.25
2023-05-16T03:40:30.915Z,115.00
2023-05-16T03:42:57.543Z,114.28
2023-05-16T03:45:24.216Z,113.03
2023-05-16T03:47:51.191Z,114.18
2023-05-16T03:50:18.202Z,111.88
2023-05-16T03:52:45.116Z,113.45
2023-05-16T03:55:14.338Z,112.53
2023-05-16T03:57:42.231Z,111.22
2023-05-16T04:00:11.332Z,115.32
2023-05-16T04:02:41.290Z,109.55
2023-05-16T04:05:09.352Z,114.55
2023-05-16T04:07:36.636Z,111.30
2023-05-16T04:10:04.582Z,112.50
2023-05-16T04:12:31.345Z,106.70
2023-05-16T04:14:58.081Z,107.68
2023-05-16T04:17:24.898Z,107.55
2023-05-16T04:19:51.609Z,104.47
2023-05-16T04:22:18.266Z,104.25
2023-05-16T04:24:44.908Z,101.50
2023-05-16T04:27:12.166Z,99.75
2023-05-16T04:29:38.880Z,98.72
2023-05-16T04:32:07.526Z,98.20
2023-05-16T04:34:39.883Z,98.53
2023-05-16T04:37:08.381Z,96.03
2023-05-16T04:39:36.182Z,97.40
2023-05-16T04:42:03.725Z,93.15
2023-05-16T04:44:30.543Z,93.63
2023-05-16T04:46:57.696Z,94.47
2023-05-16T04:49:24.446Z,93.57
2023-05-16T04:51:51.228Z,94.78
2023-05-16T04:54:18.043Z,92.93
2023-05-16T04:56:44.740Z,91.63
2023-05-16T04:59:11.361Z,90.43
2023-05-16T05:01:38.050Z,89.35
2023-05-16T05:04:04.797Z,90.72
2023-05-16T05:06:31.610Z,89.50
2023-05-16T05:08:58.295Z,95.10
2023-05-16T05:11:25.044Z,89.13
2023-05-16T05:13:53.126Z,91.68
2023-05-16T05:16:19.892Z,90.03
2023-05-16T05:18:46.658Z,88.32
2023-05-16T05:21:13.808Z,90.15
2023-05-16T05:23:41.058Z,89.53
2023-05-16T05:26:07.778Z,88.00
2023-05-16T05:28:34.491Z,88.53
2023-05-16T05:31:01.122Z,91.85
2023-05-16T05:33:30.897Z,91.72
2023-05-16T05:35:57.722Z,88.97
2023-05-16T05:38:24.374Z,89.63
2023-05-16T05:40:51.127Z,89.68
2023-05-16T05:43:17.756Z,88.88
2023-05-16T05:45:44.707Z,91.97
2023-05-16T05:48:12.496Z,92.63
2023-05-16T05:50:39.338Z,88.20
2023-05-16T05:53:06.164Z,89.18
2023-05-16T05:55:32.981Z,90.00
2023-05-16T05:57:59.670Z,89.32
2023-05-16T06:00:26.450Z,90.03
2023-05-16T06:02:53.326Z,88.72
2023-05-16T06:05:20.210Z,89.25
2023-05-16T06:07:46.835Z,93.22
2023-05-16T06:10:13.493Z,88.78
2023-05-16T06:12:40.150Z,88.80
2023-05-16T06:15:07.625Z,90.07
2023-05-16T06:17:34.340Z,90.95
2023-05-16T06:20:01.409Z,88.55
2023-05-16T06:22:28.109Z,89.57
2023-05-16T06:24:54.742Z,88.50
2023-05-16T06:27:21.345Z,87.93
2023-05-16T06:29:47.963Z,88.38
2023-05-16T06:32:14.625Z,89.13
2023-05-16T06:34:41.266Z,88.47
2023-05-16T06:37:07.876Z,90.40
2023-05-16T06:39:34.692Z,88.53
2023-05-16T06:42:01.380Z,88.82
2023-05-16T06:44:28.098Z,88.65
2023-05-16T06:46:54.840Z,88.43
2023-05-16T06:49:21.651Z,88.03
2023-05-16T06:51:48.306Z,88.30
2023-05-16T06:54:15.060Z,89.35
2023-05-16T06:56:41.797Z,88.75
2023-05-16T06:59:08.694Z,88.57
2023-05-16T07:01:35.536Z,88.28
2023-05-16T07:04:02.413Z,88.22
2023-05-16T07:06:29.199Z,87.97
2023-05-16T07:08:56.117Z,88.47
2023-05-16T07:11:22.796Z,90.80
2023-05-16T07:13:49.598Z,88.30
2023-05-16T07:16:16.347Z,88.13
2023-05-16T07:18:43.503Z,88.72
2023-05-16T07:21:10.202Z,88.38
2023-05-16T07:23:36.834Z,88.28
2023-05-16T07:26:03.750Z,88.18
2023-05-16T07:28:30.464Z,89.20
2023-05-16T07:30:58.748Z,89.68
2023-05-16T07:33:25.728Z,88.60
2023-05-16T07:35:56.080Z,88.63
2023-05-16T07:38:31.380Z,88.93
2023-05-16T07:40:58.068Z,88.30
2023-05-16T07:43:24.893Z,89.43
2023-05-16T07:45:52.261Z,89.00
2023-05-16T07:48:19.028Z,89.32
2023-05-16T07:50:45.776Z,87.82
2023-05-16T07:53:12.409Z,87.65
2023-05-16T07:55:39.143Z,88.07
2023-05-16T07:58:06.352Z,89.65
2023-05-16T08:00:33.143Z,88.30
2023-05-16T08:03:00.007Z,87.78
2023-05-16T08:05:26.968Z,88.32
2023-05-16T08:07:53.790Z,88.03
2023-05-16T08:10:20.445Z,88.63
2023-05-16T08:12:48.322Z,88.53
2023-05-16T08:15:15.339Z,88.22
2023-05-16T08:17:42.290Z,89.70
2023-05-16T08:20:09.305Z,89.03
2023-05-16T08:22:36.001Z,88.75
2023-05-16T08:25:02.746Z,88.30
2023-05-16T08:27:29.650Z,88.13
2023-05-16T08:29:56.361Z,88.45
2023-05-16T08:32:23.413Z,88.72
2023-05-16T08:34:50.046Z,92.55
2023-05-16T08:37:17.476Z,88.13
2023-05-16T08:39:44.183Z,88.63
2023-05-16T08:42:10.999Z,88.32
2023-05-16T08:44:37.694Z,87.75
2023-05-16T08:47:13.829Z,87.45
2023-05-16T08:49:42.246Z,88.03
2023-05-16T08:52:10.142Z,88.72
2023-05-16T08:54:37.726Z,88.40
2023-05-16T08:57:05.602Z,90.38
2023-05-16T08:59:32.824Z,88.18
2023-05-16T09:01:59.773Z,88.28
2023-05-16T09:04:27.647Z,88.22
2023-05-16T09:06:54.507Z,88.78
2023-05-16T09:09:21.223Z,89.00
2023-05-16T09:11:48.030Z,89.13
2023-05-16T09:14:14.872Z,88.03
2023-05-16T09:16:41.687Z,88.13
2023-05-16T09:19:13.121Z,88.13
2023-05-16T09:21:40.277Z,87.72
2023-05-16T09:24:09.443Z,89.50
2023-05-16T09:26:38.473Z,88.05
2023-05-16T09:29:14.486Z,87.78
2023-05-16T09:31:41.418Z,87.40
2023-05-16T09:34:09.308Z,91.45
2023-05-16T09:36:36.741Z,88.13
2023-05-16T09:39:03.513Z,87.22
2023-05-16T09:41:35.045Z,87.22
2023-05-16T09:44:06.353Z,87.43
2023-05-16T09:46:35.909Z,87.82
2023-05-16T09:49:03.111Z,86.65
2023-05-16T09:51:29.894Z,87.47
2023-05-16T09:53:59.116Z,87.75
2023-05-16T09:56:25.745Z,88.75
2023-05-16T09:58:52.713Z,89.20
2023-05-16T10:01:20.266Z,88.43
2023-05-16T10:03:47.248Z,86.53
2023-05-16T10:06:14.589Z,87.18
2023-05-16T10:08:43.227Z,87.55
2023-05-16T10:11:10.942Z,88.25
2023-05-16T10:13:38.985Z,87.35
2023-05-16T10:16:10.093Z,87.72
2023-05-16T10:18:39.018Z,88.90
2023-05-16T10:21:14.421Z,87.13
2023-05-16T10:23:47.610Z,87.70
2023-05-16T10:26:16.994Z,88.88
2023-05-16T10:28:44.137Z,90.97
2023-05-16T10:31:11.786Z,88.35
2023-05-16T10:33:39.629Z,87.82
2023-05-16T10:36:08.429Z,92.65
2023-05-16T10:38:36.344Z,91.88
2023-05-16T10:41:03.545Z,88.80
2023-05-16T10:43:31.081Z,95.38
2023-05-16T10:46:06.927Z,89.93
2023-05-16T10:48:39.034Z,91.18
2023-05-16T10:51:24.051Z,98.03
2023-05-16T10:53:54.983Z,88.72
2023-05-16T10:56:27.340Z,88.85
2023-05-16T10:58:56.001Z,92.40
2023-05-16T11:01:32.887Z,92.75
2023-05-16T11:03:59.660Z,96.65
2023-05-16T11:06:45.560Z,90.65
2023-05-16T11:09:13.509Z,87.03
2023-05-16T11:11:53.625Z,89.40
2023-05-16T11:14:32.437Z,94.63
2023-05-16T11:17:24.081Z,89.78
2023-05-16T11:19:51.769Z,88.97
2023-05-16T11:22:25.607Z,89.88
2023-05-16T11:25:06.475Z,90.57
2023-05-16T11:27:41.611Z,90.90
2023-05-16T11:30:13.066Z,93.80
2023-05-16T11:32:41.486Z,91.13
2023-05-16T11:35:11.088Z,90.05
2023-05-16T11:37:39.817Z,89.22
2023-05-16T11:40:08.640Z,86.35
2023-05-16T11:42:38.141Z,91.63
2023-05-16T11:45:12.714Z,92.10
2023-05-16T11:47:40.634Z,88.60
2023-05-16T11:50:12.275Z,90.15
2023-05-16T11:52:39.081Z,97.57
2023-05-16T11:55:11.276Z,90.30
2023-05-16T11:57:44.282Z,88.93
2023-05-16T12:00:16.237Z,87.57
2023-05-16T12:02:44.071Z,90.13
2023-05-16T12:05:11.591Z,92.45
2023-05-16T12:07:38.373Z,92.05
2023-05-16T12:10:09.199Z,90.20
2023-05-16T12:12:38.278Z,104.78
2023-05-16T12:15:06.886Z,87.45
2023-05-16T12:17:37.985Z,89.23
2023-05-16T12:20:06.987Z,90.93
2023-05-16T12:22:34.495Z,87.57
2023-05-16T12:25:21.771Z,89.27
2023-05-16T12:27:48.460Z,87.13
2023-05-16T12:30:17.920Z,86.87
2023-05-16T12:32:45.158Z,87.90
2023-05-16T12:35:13.175Z,85.00
2023-05-16T12:37:39.884Z,86.60
2023-05-16T12:40:12.526Z,93.00
2023-05-16T12:42:39.181Z,88.40
2023-05-16T12:45:14.420Z,86.77
2023-05-16T12:47:41.184Z,86.03
2023-05-16T12:50:14.121Z,84.60
2023-05-16T12:52:49.620Z,87.80
2023-05-16T12:55:21.892Z,85.20
2023-05-16T12:57:49.867Z,84.63
2023-05-16T13:00:19.434Z,87.23
2023-05-16T13:02:47.560Z,84.55
2023-05-16T13:05:15.416Z,85.80
2023-05-16T13:07:42.183Z,87.20
2023-05-16T13:10:11.257Z,84.27
2023-05-16T13:12:40.324Z,84.80
2023-05-16T13:15:08.571Z,87.77
2023-05-16T13:17:36.549Z,87.93
2023-05-16T13:20:10.492Z,85.73
2023-05-16T13:22:37.681Z,85.17
2023-05-16T13:25:06.032Z,84.60
2023-05-16T13:27:34.084Z,90.00
2023-05-16T13:30:01.602Z,84.10
2023-05-16T13:32:28.303Z,88.60
2023-05-16T13:34:55.180Z,88.53
2023-05-16T13:37:24.297Z,89.10
2023-05-16T13:39:51.078Z,85.05
2023-05-16T13:42:20.603Z,84.63
2023-05-16T13:44:47.434Z,86.47
2023-05-16T13:47:14.288Z,84.00
2023-05-16T13:49:40.932Z,87.30
2023-05-16T13:52:08.489Z,91.37
2023-05-16T13:54:35.480Z,86.17
2023-05-16T13:57:03.342Z,84.60
2023-05-16T13:59:46.739Z,83.68
2023-05-16T14:02:16.833Z,84.10
2023-05-16T14:04:43.492Z,85.33
2023-05-16T14:07:10.286Z,85.13
2023-05-16T14:09:39.370Z,85.60
2023-05-16T14:12:09.425Z,84.17
2023-05-16T14:14:36.507Z,85.17
2023-05-16T14:17:04.195Z,85.90
2023-05-16T14:19:31.266Z,84.20
2023-05-16T14:21:58.274Z,85.60
2023-05-16T14:24:24.978Z,86.07
2023-05-16T14:26:57.564Z,86.30
2023-05-16T14:29:25.269Z,84.30
2023-05-16T14:31:52.146Z,89.10
2023-05-16T14:34:18.872Z,84.40
2023-05-16T14:36:45.569Z,88.87
2023-05-16T14:39:12.255Z,87.07
2023-05-16T14:41:38.927Z,90.70
2023-05-16T14:44:05.864Z,89.13
2023-05-16T14:46:32.654Z,86.72
2023-05-16T14:48:59.721Z,86.75
2023-05-16T14:51:26.377Z,85.55
2023-05-16T14:53:53.165Z,86.57
2023-05-16T14:56:19.970Z,85.07
2023-05-16T14:58:46.587Z,91.03
2023-05-16T15:01:13.265Z,86.47
2023-05-16T15:03:53.703Z,84.88
2023-05-16T15:06:22.350Z,85.30
2023-05-16T15:08:49.005Z,87.13
2023-05-16T15:11:15.685Z,88.95
2023-05-16T15:13:42.446Z,86.90
2023-05-16T15:16:09.204Z,87.68
2023-05-16T15:18:36.193Z,85.65
2023-05-16T15:21:03.001Z,85.70
2023-05-16T15:23:30.028Z,87.30
2023-05-16T15:25:56.742Z,86.53
2023-05-16T15:28:23.487Z,89.15
2023-05-16T15:30:51.490Z,87.50
2023-05-16T15:33:18.276Z,85.35
2023-05-16T15:35:45.219Z,87.53
2023-05-16T15:38:12.026Z,87.97
2023-05-16T15:40:38.890Z,91.68
2023-05-16T15:43:05.554Z,86.43
2023-05-16T15:45:32.545Z,89.57
2023-05-16T15:47:59.293Z,89.03
2023-05-16T15:50:26.425Z,93.50
2023-05-16T15:52:53.187Z,103.60
2023-05-16T15:55:19.988Z,88.77
2023-05-16T15:57:46.745Z,87.55
2023-05-16T16:00:14.024Z,90.63
2023-05-16T16:02:42.333Z,89.60
2023-05-16T16:05:09.231Z,85.82
2023-05-16T16:07:36.051Z,105.72
2023-05-16T16:10:02.701Z,91.82
2023-05-16T16:12:31.300Z,92.90
2023-05-16T16:14:58.292Z,90.05
2023-05-16T16:17:25.118Z,85.75
2023-05-16T16:19:51.808Z,87.50
2023-05-16T16:22:19.792Z,87.10
2023-05-16T16:24:47.650Z,86.25
2023-05-16T16:27:14.301Z,87.55
2023-05-16T16:29:40.958Z,86.38
2023-05-16T16:32:07.785Z,87.53
2023-05-16T16:34:34.601Z,87.88
2023-05-16T16:37:01.259Z,89.28
2023-05-16T16:39:30.453Z,88.28
2023-05-16T16:41:58.843Z,86.18
2023-05-16T16:44:25.980Z,89.22
2023-05-16T16:46:52.723Z,85.95
2023-05-16T16:49:19.421Z,85.53
2023-05-16T16:51:47.216Z,85.95
2023-05-16T16:54:14.246Z,86.72
2023-05-16T16:56:40.996Z,86.65
2023-05-16T16:59:07.876Z,87.60
2023-05-16T17:01:35.116Z,86.63
2023-05-16T17:04:02.149Z,86.35
2023-05-16T17:06:30.023Z,88.90
2023-05-16T17:08:57.248Z,86.53
2023-05-16T17:11:23.945Z,89.25
2023-05-16T17:13:51.220Z,87.53
2023-05-16T17:16:17.955Z,89.53
2023-05-16T17:18:44.717Z,87.78
2023-05-16T17:21:12.835Z,87.28
2023-05-16T17:23:41.697Z,86.72
2023-05-16T17:26:09.975Z,89.20
2023-05-16T17:28:36.623Z,86.32
2023-05-16T17:31:04.065Z,88.35
2023-05-16T17:33:31.185Z,88.40
2023-05-16T17:35:57.864Z,87.53
2023-05-16T17:38:24.652Z,87.28
2023-05-16T17:40:51.340Z,89.60
2023-05-16T17:43:18.005Z,89.22
2023-05-16T17:45:44.721Z,90.22
2023-05-16T17:48:11.446Z,88.80
2023-05-16T17:50:38.324Z,88.68
2023-05-16T17:53:05.062Z,96.32
2023-05-16T17:55:33.499Z,89.30
2023-05-16T17:58:00.275Z,88.88
2023-05-16T18:00:27.056Z,88.40
2023-05-16T18:02:53.813Z,92.30
2023-05-16T18:05:20.616Z,87.53
2023-05-16T18:07:47.331Z,90.03
2023-05-16T18:10:14.625Z,94.15
2023-05-16T18:12:41.697Z,93.78
2023-05-16T18:15:10.538Z,87.20
2023-05-16T18:17:37.399Z,86.82
2023-05-16T18:20:09.448Z,87.82
2023-05-16T18:22:39.996Z,88.45
2023-05-16T18:25:09.224Z,87.40
2023-05-16T18:27:36.807Z,88.25
2023-05-16T18:30:05.531Z,88.53
2023-05-16T18:32:32.777Z,89.80
2023-05-16T18:34:59.475Z,88.03
2023-05-16T18:37:26.244Z,89.63
2023-05-16T18:39:53.020Z,90.13
2023-05-16T18:42:19.700Z,87.90
2023-05-16T18:44:46.450Z,88.32
2023-05-16T18:47:15.712Z,90.53
2023-05-16T18:49:43.210Z,88.88
2023-05-16T18:52:10.634Z,92.53
2023-05-16T18:54:38.748Z,87.45
2023-05-16T18:57:06.494Z,89.82
2023-05-16T18:59:33.853Z,91.90
2023-05-16T19:02:00.854Z,93.10
2023-05-16T19:04:27.799Z,88.85
2023-05-16T19:06:56.253Z,88.18
2023-05-16T19:09:23.369Z,90.18
2023-05-16T19:11:50.073Z,88.18
2023-05-16T19:14:17.123Z,90.40
2023-05-16T19:16:43.780Z,87.95
2023-05-16T19:19:10.509Z,88.32
2023-05-16T19:21:37.880Z,90.05
2023-05-16T19:24:05.203Z,90.53
2023-05-16T19:26:32.340Z,89.10
2023-05-16T19:28:59.099Z,91.10
2023-05-16T19:31:25.891Z,88.80
2023-05-16T19:33:52.647Z,92.75
2023-05-16T19:36:19.305Z,88.65
2023-05-16T19:38:45.969Z,91.38
2023-05-16T19:41:12.658Z,92.32
2023-05-16T19:43:39.360Z,93.22
2023-05-16T19:46:06.266Z,95.00
2023-05-16T19:48:33.107Z,92.90
2023-05-16T19:50:59.881Z,92.38
2023-05-16T19:53:26.635Z,92.93
2023-05-16T19:55:53.304Z,95.03
2023-05-16T19:58:20.037Z,89.30
2023-05-16T20:00:47.080Z,89.32
2023-05-16T20:03:14.126Z,89.47
2023-05-16T20:05:40.961Z,90.25
2023-05-16T20:08:07.702Z,92.40
2023-05-16T20:10:35.182Z,93.97
2023-05-16T20:13:01.999Z,92.45
2023-05-16T20:15:28.935Z,94.13
2023-05-16T20:17:56.690Z,91.13
2023-05-16T20:20:23.623Z,91.65
2023-05-16T20:22:50.389Z,93.18
2023-05-16T20:25:17.114Z,90.35
2023-05-16T20:27:43.787Z,89.72
2023-05-16T20:30:10.826Z,89.43
2023-05-16T20:32:37.511Z,96.45
2023-05-16T20:35:08.839Z,92.13
2023-05-16T20:37:35.560Z,93.95
2023-05-16T20:40:02.482Z,92.22
2023-05-16T20:42:29.148Z,91.43
2023-05-16T20:44:55.830Z,90.78
2023-05-16T20:47:22.500Z,90.43
2023-05-16T20:49:49.208Z,90.10
2023-05-16T20:52:15.881Z,91.03
2023-05-16T20:54:42.586Z,89.72
2023-05-16T20:57:09.370Z,91.35
2023-05-16T20:59:37.349Z,90.60
2023-05-16T21:02:05.751Z,91.13
2023-05-16T21:04:32.469Z,91.38
2023-05-16T21:06:59.116Z,90.35
2023-05-16T21:09:25.968Z,90.15
2023-05-16T21:11:52.695Z,92.05
2023-05-16T21:14:19.360Z,91.10
2023-05-16T21:16:46.068Z,92.30
2023-05-16T21:19:12.789Z,90.82
2023-05-16T21:21:39.501Z,95.22
2023-05-16T21:24:06.482Z,91.40
2023-05-16T21:26:33.165Z,95.38
2023-05-16T21:28:59.856Z,91.25
2023-05-16T21:31:26.641Z,94.43
2023-05-16T21:33:53.356Z,91.32
2023-05-16T21:36:20.981Z,92.22
2023-05-16T21:38:48.167Z,90.22
2023-05-16T21:41:15.114Z,89.43
2023-05-16T21:43:41.761Z,89.65
2023-05-16T21:46:08.481Z,91.18
2023-05-16T21:48:36.041Z,90.78
2023-05-16T21:51:03.689Z,90.35
2023-05-16T21:53:30.421Z,95.47
2023-05-16T21:55:57.102Z,94.25
2023-05-16T21:58:25.126Z,92.50
2023-05-16T22:00:51.977Z,92.38
2023-05-16T22:03:21.119Z,92.07
2023-05-16T22:05:48.018Z,91.95
2023-05-16T22:08:14.731Z,92.53
2023-05-16T22:10:41.592Z,92.63
2023-05-16T22:13:08.547Z,96.00
2023-05-16T22:15:35.402Z,92.03
2023-05-16T22:18:02.436Z,97.82
2023-05-16T22:20:29.723Z,92.55
2023-05-16T22:22:56.629Z,95.80
2023-05-16T22:25:23.452Z,93.13
2023-05-16T22:27:50.284Z,91.03
2023-05-16T22:30:17.001Z,97.32
2023-05-16T22:32:45.589Z,93.07
2023-05-16T22:35:13.448Z,93.97
2023-05-16T22:37:40.122Z,94.32
2023-05-16T22:40:07.850Z,93.05
2023-05-16T22:42:34.603Z,96.47
2023-05-16T22:45:01.295Z,92.40
2023-05-16T22:47:28.858Z,90.28
2023-05-16T22:49:55.790Z,92.28
2023-05-16T22:52:22.549Z,99.90
2023-05-16T22:54:49.288Z,92.50
2023-05-16T22:57:16.106Z,91.97
2023-05-16T22:59:42.919Z,92.60
2023-05-16T23:02:09.660Z,93.65
2023-05-16T23:04:36.481Z,95.18
2023-05-16T23:07:03.302Z,95.00
2023-05-16T23:09:29.960Z,93.88
2023-05-16T23:11:56.652Z,93.68
2023-05-16T23:14:23.370Z,95.75
2023-05-16T23:16:50.011Z,95.03
2023-05-16T23:19:16.818Z,92.35
2023-05-16T23:21:44.423Z,91.82
2023-05-16T23:24:11.136Z,93.47
2023-05-16T23:26:37.838Z,94.55
2023-05-16T23:29:04.612Z,93.13
2023-05-16T23:31:31.371Z,90.93
2023-05-16T23:33:58.087Z,93.60
2023-05-16T23:36:24.805Z,93.68
2023-05-16T23:38:51.512Z,92.18
2023-05-16T23:41:18.253Z,93.45
2023-05-16T23:43:44.921Z,93.28
2023-05-16T23:46:11.737Z,91.78
2023-05-16T23:48:39.944Z,91.20
2023-05-16T23:51:07.582Z,92.30
2023-05-16T23:53:35.196Z,92.57
2023-05-16T23:56:01.962Z,92.38
2023-05-16T23:58:28.772Z,92.38
